Time;durP1;ratioP1;P1;durP2;ratioP2;P2;SDS_P1;SDS_P2;PMS_P1;PMS_P2;Temp;Humidity;BMP_temperature;BMP_pressure;BME280_temperature;BME280_humidity;BME280_pressure;Samples;Min_cycle;Max_cycle;Signal;HPM_P1;HPM_P2
2023/10/20 00:01:56;;;;;;;;;;;;;;;14.64;nan;99815.38;4966444;28;19918;-87
2023/10/20 00:04:24;;;;;;;;;;;;;;;14.66;nan;99810.47;4965040;28;20028;-85
2023/10/20 00:07:02;;;;;;;;;;;;;;;14.70;nan;99814.16;4969087;28;20413;-87
2023/10/20 00:09:29;;;;;;;;;;;;;;;14.71;nan;99810.38;4974564;28;19941;-86
2023/10/20 00:11:58;;;;;;;;;;;;;;;14.70;nan;99810.66;4973315;28;19918;-86
2023/10/20 00:14:34;;;;;;;;;;;;;;;14.66;nan;99810.47;4968769;28;19922;-85
2023/10/20 00:17:21;;;;;;;;;;;;;;;14.65;nan;99810.78;4967409;28;19933;-86
2023/10/20 00:19:46;;;;;;;;;;;;;;;14.65;nan;99811.56;4970818;28;20388;-86
2023/10/20 00:22:19;;;;;;;;;;;;;;;14.60;nan;99813.56;4971518;28;19922;-86
2023/10/20 00:24:55;;;;;;;;;;;;;;;14.51;nan;99810.75;4968641;28;20313;-86
2023/10/20 00:27:24;;;;;;;;;;;;;;;14.47;nan;99809.75;4970590;28;20017;-87
2023/10/20 00:29:50;;;;;;;;;;;;;;;14.46;nan;99810.84;4968255;28;20009;-86
2023/10/20 00:32:16;;;;;;;;;;;;;;;14.48;nan;99803.25;4970573;28;19925;-85
2023/10/20 00:34:42;;;;;;;;;;;;;;;14.51;nan;99800.75;4972633;28;19968;-85
2023/10/20 00:37:10;;;;;;;;;;;;;;;14.50;nan;99803.75;4970115;28;20309;-85
2023/10/20 00:39:40;;;;;;;;;;;;;;;14.48;nan;99797.84;4971183;28;19949;-86
2023/10/20 00:42:09;;;;;;;;;;;;;;;14.45;nan;99798.47;4968605;28;20021;-86
2023/10/20 00:44:35;;;;;;;;;;;;;;;14.47;nan;99802.44;4967871;28;20020;-86
2023/10/20 00:47:01;;;;;;;;;;;;;;;14.46;nan;99808.13;4970718;28;19929;-84
2023/10/20 00:49:27;;;;;;;;;;;;;;;14.41;nan;99809.00;4973462;28;19922;-85
2023/10/20 00:51:53;;;;;;;;;;;;;;;14.34;nan;99815.84;4972346;28;20033;-85
2023/10/20 00:54:20;;;;;;;;;;;;;;;14.35;nan;99812.88;4976694;28;19945;-85
2023/10/20 00:57:01;;;;;;;;;;;;;;;14.36;nan;99821.75;4974604;28;20395;-85
2023/10/20 00:59:27;;;;;;;;;;;;;;;14.37;nan;99820.69;4975759;28;20370;-86
2023/10/20 01:01:54;;;;;;;;;;;;;;;14.34;nan;99821.25;4973963;28;19917;-84
2023/10/20 01:04:22;;;;;;;;;;;;;;;14.37;nan;99828.75;4971734;28;19932;-84
2023/10/20 01:06:49;;;;;;;;;;;;;;;14.41;nan;99817.09;4975141;28;20249;-85
2023/10/20 01:09:37;;;;;;;;;;;;;;;14.45;nan;99822.72;4960678;28;20439;-84
2023/10/20 01:12:03;;;;;;;;;;;;;;;14.40;nan;99820.09;4971888;28;19944;-85
2023/10/20 01:14:39;;;;;;;;;;;;;;;14.37;nan;99815.28;4970298;28;20009;-85
2023/10/20 01:17:07;;;;;;;;;;;;;;;14.36;nan;99798.31;4969969;28;19937;-85
2023/10/20 01:19:51;;;;;;;;;;;;;;;14.37;nan;99791.84;4975908;28;20498;-85
2023/10/20 01:22:18;;;;;;;;;;;;;;;14.39;nan;99788.84;4972183;28;20017;-86
2023/10/20 01:24:45;;;;;;;;;;;;;;;14.36;nan;99784.84;4971137;28;19928;-85
2023/10/20 01:27:16;;;;;;;;;;;;;;;14.35;nan;99790.50;4973578;28;19918;-86
2023/10/20 01:29:43;;;;;;;;;;;;;;;14.36;nan;99781.31;4971121;28;19944;-85
2023/10/20 01:32:12;;;;;;;;;;;;;;;14.31;nan;99770.66;4971561;28;19929;-85
2023/10/20 01:34:38;;;;;;;;;;;;;;;14.27;nan;99759.66;4970158;28;19937;-85
2023/10/20 01:37:10;;;;;;;;;;;;;;;14.26;nan;99762.66;4975710;28;20149;-85
2023/10/20 01:39:39;;;;;;;;;;;;;;;14.23;nan;99768.66;4976337;28;19926;-84
2023/10/20 01:42:05;;;;;;;;;;;;;;;14.21;nan;99753.56;4973884;28;19924;-84
2023/10/20 01:44:32;;;;;;;;;;;;;;;14.25;nan;99755.69;4967943;28;19926;-87
2023/10/20 01:47:00;;;;;;;;;;;;;;;14.28;nan;99753.19;4973017;28;19932;-85
2023/10/20 01:49:27;;;;;;;;;;;;;;;14.27;nan;99762.34;4974851;28;19953;-86
2023/10/20 01:51:56;;;;;;;;;;;;;;;14.29;nan;99776.34;4975188;28;19917;-85
2023/10/20 01:54:31;;;;;;;;;;;;;;;14.14;nan;99760.44;4970003;28;19940;-85
2023/10/20 01:57:02;;;;;;;;;;;;;;;14.07;nan;99750.03;4975762;28;19926;-85
2023/10/20 01:59:30;;;;;;;;;;;;;;;14.04;nan;99747.16;4974409;28;19925;-85
2023/10/20 02:01:57;;;;;;;;;;;;;;;14.02;nan;99754.72;4972728;28;19917;-85
2023/10/20 02:04:27;;;;;;;;;;;;;;;14.03;nan;99749.03;4970280;28;19933;-85
2023/10/20 02:06:55;;;;;;;;;;;;;;;13.98;nan;99759.88;4972775;28;19921;-86
2023/10/20 02:09:29;;;;;;;;;;;;;;;13.93;nan;99757.28;4972018;28;20297;-86
2023/10/20 02:11:58;;;;;;;;;;;;;;;13.94;nan;99761.56;4974425;28;19928;-85
2023/10/20 02:14:25;;;;;;;;;;;;;;;14.00;nan;99764.97;4974323;28;20001;-85
2023/10/20 02:17:01;;;;;;;;;;;;;;;14.04;nan;99763.31;4968146;28;19925;-85
2023/10/20 02:19:31;;;;;;;;;;;;;;;14.05;nan;99765.69;4972581;28;19964;-85
2023/10/20 02:22:00;;;;;;;;;;;;;;;14.09;nan;99761.31;4970919;28;20036;-85
2023/10/20 02:24:28;;;;;;;;;;;;;;;14.09;nan;99769.41;4973344;28;20120;-86
2023/10/20 02:26:53;;;;;;;;;;;;;;;14.08;nan;99770.50;4969192;28;19969;-85
2023/10/20 02:29:23;;;;;;;;;;;;;;;14.07;nan;99768.09;4967886;28;19926;-85
2023/10/20 02:31:49;;;;;;;;;;;;;;;14.08;nan;99759.72;4969774;28;19922;-86
2023/10/20 02:34:16;;;;;;;;;;;;;;;14.10;nan;99757.53;4971543;28;19965;-86
2023/10/20 02:36:43;;;;;;;;;;;;;;;14.11;nan;99751.03;4971511;28;19922;-86
2023/10/20 02:39:10;;;;;;;;;;;;;;;14.07;nan;99741.97;4971285;28;19941;-85
2023/10/20 02:41:45;;;;;;;;;;;;;;;14.02;nan;99743.94;4972584;28;20383;-86
2023/10/20 02:44:22;;;;;;;;;;;;;;;13.96;nan;99743.22;4974457;28;20060;-86
2023/10/20 02:46:49;;;;;;;;;;;;;;;13.89;nan;99743.59;4972699;28;19922;-85
2023/10/20 02:49:18;;;;;;;;;;;;;;;13.84;nan;99737.50;4970966;28;20032;-86
2023/10/20 02:51:45;;;;;;;;;;;;;;;13.84;nan;99746.38;4968021;28;19922;-86
2023/10/20 02:54:17;;;;;;;;;;;;;;;13.83;nan;99741.28;4974465;28;20028;-84
2023/10/20 02:56:46;;;;;;;;;;;;;;;13.87;nan;99745.78;4970316;28;19926;-86
2023/10/20 02:59:24;;;;;;;;;;;;;;;13.91;nan;99748.69;4966515;28;20422;-85
2023/10/20 03:02:22;;;;;;;;;;;;;;;13.90;nan;99757.88;4968524;28;19944;-85
2023/10/20 03:04:54;;;;;;;;;;;;;;;13.87;nan;99763.84;4972998;28;19922;-84
2023/10/20 03:07:27;;;;;;;;;;;;;;;13.80;nan;99768.78;4971690;28;20345;-85
2023/10/20 03:09:55;;;;;;;;;;;;;;;13.79;nan;99761.81;4973361;28;20572;-84
2023/10/20 03:12:24;;;;;;;;;;;;;;;13.73;nan;99746.81;4974070;28;20445;-86
2023/10/20 03:14:56;;;;;;;;;;;;;;;13.68;nan;99742.34;4973270;28;19941;-86
2023/10/20 03:17:22;;;;;;;;;;;;;;;13.69;nan;99735.84;4969397;28;19936;-86
2023/10/20 03:19:49;;;;;;;;;;;;;;;13.65;nan;99734.03;4970423;28;20012;-85
2023/10/20 03:22:17;;;;;;;;;;;;;;;13.54;nan;99736.06;4973954;28;19922;-85
2023/10/20 03:24:53;;;;;;;;;;;;;;;13.45;nan;99725.16;4973758;28;19924;-84
2023/10/20 03:27:19;;;;;;;;;;;;;;;13.44;nan;99718.19;4972521;28;19994;-86
2023/10/20 03:29:46;;;;;;;;;;;;;;;13.45;nan;99714.41;4969190;28;20362;-85
2023/10/20 03:32:13;;;;;;;;;;;;;;;13.45;nan;99711.69;4969389;28;20682;-86
2023/10/20 03:34:43;;;;;;;;;;;;;;;13.43;nan;99713.09;4965543;28;19926;-85
2023/10/20 03:37:09;;;;;;;;;;;;;;;13.41;nan;99707.19;4972084;28;20180;-87
2023/10/20 03:39:37;;;;;;;;;;;;;;;13.42;nan;99709.59;4972558;28;19933;-85
2023/10/20 03:42:07;;;;;;;;;;;;;;;13.38;nan;99713.97;4971391;28;19924;-86
2023/10/20 03:44:35;;;;;;;;;;;;;;;13.33;nan;99714.06;4967477;28;20276;-86
2023/10/20 03:47:01;;;;;;;;;;;;;;;13.36;nan;99726.13;4968178;28;19925;-86
2023/10/20 03:49:33;;;;;;;;;;;;;;;13.38;nan;99708.59;4970684;28;19922;-86
2023/10/20 03:52:06;;;;;;;;;;;;;;;13.41;nan;99724.16;4970026;28;19918;-85
2023/10/20 03:54:32;;;;;;;;;;;;;;;13.44;nan;99715.50;4971292;28;19918;-87
2023/10/20 03:56:58;;;;;;;;;;;;;;;13.46;nan;99721.38;4970420;28;19957;-86
2023/10/20 03:59:26;;;;;;;;;;;;;;;13.40;nan;99719.84;4968821;28;19964;-85
2023/10/20 04:01:55;;;;;;;;;;;;;;;13.38;nan;99718.56;4971298;28;20671;-85
2023/10/20 04:04:23;;;;;;;;;;;;;;;13.37;nan;99717.75;4972270;28;19926;-85
2023/10/20 04:06:53;;;;;;;;;;;;;;;13.34;nan;99706.78;4967822;28;20393;-84
2023/10/20 04:09:22;;;;;;;;;;;;;;;13.31;nan;99713.56;4966383;28;20666;-84
2023/10/20 04:11:53;;;;;;;;;;;;;;;13.23;nan;99717.66;4967719;28;19934;-85
2023/10/20 04:14:24;;;;;;;;;;;;;;;13.18;nan;99703.50;4967635;28;19936;-84
2023/10/20 04:16:50;;;;;;;;;;;;;;;13.15;nan;99714.81;4969563;28;19983;-84
2023/10/20 04:19:27;;;;;;;;;;;;;;;13.15;nan;99698.69;4968764;28;20298;-85
2023/10/20 04:21:54;;;;;;;;;;;;;;;13.12;nan;99688.50;4966335;28;20025;-85
2023/10/20 04:24:21;;;;;;;;;;;;;;;13.11;nan;99689.59;4969762;28;19922;-86
2023/10/20 04:26:47;;;;;;;;;;;;;;;13.11;nan;99686.91;4976118;28;19918;-85
2023/10/20 04:29:23;;;;;;;;;;;;;;;13.11;nan;99682.34;4968840;28;19926;-86
2023/10/20 04:46:58;;;;;;;;;;;;;;;13.08;nan;99657.88;4971685;28;20518;-85
2023/10/20 04:51:20;;;;;;;;;;;;;;;12.96;nan;99645.69;4968803;28;20057;-85
2023/10/20 04:54:04;;;;;;;;;;;;;;;12.93;nan;99638.22;4963847;28;19918;-84
2023/10/20 04:59:22;;;;;;;;;;;;;;;12.94;nan;99623.69;4966459;28;19980;-85
2023/10/20 05:01:49;;;;;;;;;;;;;;;12.90;nan;99617.25;4967210;28;20668;-84
2023/10/20 05:04:28;;;;;;;;;;;;;;;12.90;nan;99627.22;4968072;28;20378;-86
2023/10/20 05:06:58;;;;;;;;;;;;;;;12.93;nan;99632.84;4968457;28;19925;-85
2023/10/20 05:09:25;;;;;;;;;;;;;;;12.91;nan;99635.00;4968753;28;19918;-85
2023/10/20 05:11:52;;;;;;;;;;;;;;;12.90;nan;99644.16;4966600;28;19922;-85
2023/10/20 05:14:24;;;;;;;;;;;;;;;12.91;nan;99651.13;4965784;28;19937;-84
2023/10/20 05:16:52;;;;;;;;;;;;;;;12.84;nan;99649.88;4967245;28;19980;-84
2023/10/20 05:19:32;;;;;;;;;;;;;;;12.86;nan;99651.19;4967221;28;19929;-86
2023/10/20 05:21:59;;;;;;;;;;;;;;;12.94;nan;99655.94;4968736;28;19949;-85
2023/10/20 05:24:31;;;;;;;;;;;;;;;12.98;nan;99659.66;4964160;28;20050;-86
2023/10/20 05:26:56;;;;;;;;;;;;;;;13.01;nan;99664.44;4955522;28;20072;-84
2023/10/20 05:29:23;;;;;;;;;;;;;;;13.06;nan;99658.19;4956273;28;20503;-84
2023/10/20 05:31:51;;;;;;;;;;;;;;;13.05;nan;99647.72;4968837;28;19922;-85
2023/10/20 05:34:20;;;;;;;;;;;;;;;12.95;nan;99646.00;4966813;28;20017;-84
2023/10/20 05:36:49;;;;;;;;;;;;;;;12.89;nan;99637.16;4969888;28;21884;-85
2023/10/20 05:39:21;;;;;;;;;;;;;;;12.86;nan;99636.97;4973834;28;19932;-85
2023/10/20 05:41:49;;;;;;;;;;;;;;;12.88;nan;99651.69;4967603;28;19933;-84
2023/10/20 05:44:22;;;;;;;;;;;;;;;12.83;nan;99642.91;4968125;28;19918;-85
2023/10/20 05:46:47;;;;;;;;;;;;;;;12.77;nan;99631.44;4969275;28;19971;-85
2023/10/20 05:49:13;;;;;;;;;;;;;;;12.78;nan;99638.41;4969222;28;20271;-85
2023/10/20 05:51:40;;;;;;;;;;;;;;;12.80;nan;99635.44;4968003;28;19941;-85
2023/10/20 05:54:07;;;;;;;;;;;;;;;12.83;nan;99630.28;4970917;28;19926;-83
2023/10/20 05:56:36;;;;;;;;;;;;;;;12.84;nan;99633.75;4970970;28;20365;-85
2023/10/20 05:59:03;;;;;;;;;;;;;;;12.75;nan;99628.25;4968300;28;19926;-86
2023/10/20 06:01:30;;;;;;;;;;;;;;;12.71;nan;99638.75;4968873;28;19925;-84
2023/10/20 06:03:57;;;;;;;;;;;;;;;12.72;nan;99636.88;4973236;28;19918;-85
2023/10/20 06:06:23;;;;;;;;;;;;;;;12.73;nan;99633.09;4972114;28;19930;-86
2023/10/20 06:08:50;;;;;;;;;;;;;;;12.77;nan;99638.72;4968102;28;19934;-86
2023/10/20 06:11:17;;;;;;;;;;;;;;;12.75;nan;99641.69;4967605;28;20551;-84
2023/10/20 06:13:46;;;;;;;;;;;;;;;12.73;nan;99638.47;4965596;28;19926;-87
2023/10/20 06:16:13;;;;;;;;;;;;;;;12.71;nan;99635.28;4963216;28;20032;-87
2023/10/20 06:18:42;;;;;;;;;;;;;;;12.68;nan;99631.28;4969358;28;19930;-86
2023/10/20 06:21:25;;;;;;;;;;;;;;;12.65;nan;99609.56;4966078;28;19928;-87
2023/10/20 06:23:50;;;;;;;;;;;;;;;12.64;nan;99605.28;4972163;28;19930;-85
2023/10/20 06:26:18;;;;;;;;;;;;;;;12.62;nan;99607.44;4970718;28;20306;-84
2023/10/20 06:28:52;;;;;;;;;;;;;;;12.60;nan;99615.00;4969216;28;19965;-86
2023/10/20 06:33:55;;;;;;;;;;;;;;;12.58;nan;99612.63;4975765;28;19927;-87
2023/10/20 06:36:25;;;;;;;;;;;;;;;12.64;nan;99621.41;4972341;28;20029;-86
2023/10/20 06:38:52;;;;;;;;;;;;;;;12.63;nan;99619.81;4970980;28;20354;-86
2023/10/20 06:41:19;;;;;;;;;;;;;;;12.63;nan;99614.44;4966716;28;20000;-85
2023/10/20 06:43:46;;;;;;;;;;;;;;;12.66;nan;99617.34;4972602;28;20000;-86
2023/10/20 06:46:16;;;;;;;;;;;;;;;12.69;nan;99603.31;4971831;28;20101;-85
2023/10/20 06:48:45;;;;;;;;;;;;;;;12.62;nan;99616.31;4974576;28;19922;-87
2023/10/20 06:51:14;;;;;;;;;;;;;;;12.60;nan;99617.69;4972444;28;20454;-86
2023/10/20 06:53:40;;;;;;;;;;;;;;;12.65;nan;99621.09;4973002;28;20120;-86
2023/10/20 06:56:07;;;;;;;;;;;;;;;12.67;nan;99610.06;4968178;28;19924;-86
2023/10/20 06:58:36;;;;;;;;;;;;;;;12.68;nan;99608.97;4976171;28;20296;-87
2023/10/20 07:01:05;;;;;;;;;;;;;;;12.69;nan;99599.81;4969318;28;20314;-84
2023/10/20 07:03:32;;;;;;;;;;;;;;;12.68;nan;99611.66;4970457;28;19998;-85
2023/10/20 07:05:59;;;;;;;;;;;;;;;12.70;nan;99621.03;4968538;28;19926;-86
2023/10/20 07:08:27;;;;;;;;;;;;;;;12.72;nan;99623.44;4968469;28;19926;-86
2023/10/20 07:10:54;;;;;;;;;;;;;;;12.74;nan;99613.19;4967047;28;20386;-86
2023/10/20 07:13:21;;;;;;;;;;;;;;;12.76;nan;99605.66;4972490;28;20334;-86
2023/10/20 07:15:54;;;;;;;;;;;;;;;12.82;nan;99598.31;4968733;28;20401;-86
2023/10/20 07:18:21;;;;;;;;;;;;;;;12.81;nan;99578.69;4966347;28;20416;-87
2023/10/20 07:20:48;;;;;;;;;;;;;;;12.76;nan;99584.16;4968238;28;20048;-86
2023/10/20 07:23:20;;;;;;;;;;;;;;;12.75;nan;99587.94;4968051;28;20282;-88
2023/10/20 07:25:47;;;;;;;;;;;;;;;12.71;nan;99586.91;4977532;28;19918;-85
2023/10/20 07:28:13;;;;;;;;;;;;;;;12.64;nan;99591.84;4969919;28;20555;-85
2023/10/20 07:30:40;;;;;;;;;;;;;;;12.59;nan;99592.72;4967144;28;19928;-89
2023/10/20 07:33:31;;;;;;;;;;;;;;;12.66;nan;99595.84;4971204;28;20704;-86
2023/10/20 07:35:59;;;;;;;;;;;;;;;12.63;nan;99595.63;4972301;28;20369;-91
2023/10/20 07:38:25;;;;;;;;;;;;;;;12.61;nan;99587.84;4970889;28;19922;-85
2023/10/20 07:40:56;;;;;;;;;;;;;;;12.64;nan;99598.00;4973934;28;19929;-89
2023/10/20 07:43:23;;;;;;;;;;;;;;;12.61;nan;99584.38;4970422;28;19926;-87
2023/10/20 07:45:52;;;;;;;;;;;;;;;12.62;nan;99580.59;4968641;28;19922;-85
2023/10/20 07:48:17;;;;;;;;;;;;;;;12.64;nan;99575.72;4968314;28;19936;-85
2023/10/20 07:51:01;;;;;;;;;;;;;;;12.64;nan;99581.09;4974218;28;19928;-87
2023/10/20 07:53:29;;;;;;;;;;;;;;;12.62;nan;99580.59;4970357;28;19944;-85
2023/10/20 07:55:55;;;;;;;;;;;;;;;12.52;nan;99557.31;4978069;28;20267;-89
2023/10/20 07:58:41;;;;;;;;;;;;;;;12.47;nan;99557.41;4970272;28;19925;-89
2023/10/20 08:01:08;;;;;;;;;;;;;;;12.49;nan;99549.06;4978991;28;20337;-86
2023/10/20 08:03:47;;;;;;;;;;;;;;;12.45;nan;99539.97;4980544;28;19929;-86
2023/10/20 08:06:16;;;;;;;;;;;;;;;12.47;nan;99535.13;4977039;28;19922;-85
2023/10/20 08:08:51;;;;;;;;;;;;;;;12.52;nan;99529.66;4977705;28;19922;-85
2023/10/20 08:11:21;;;;;;;;;;;;;;;12.55;nan;99534.44;4977913;28;19929;-87
2023/10/20 08:14:05;;;;;;;;;;;;;;;12.52;nan;99519.72;4977859;28;20285;-87
2023/10/20 08:16:42;;;;;;;;;;;;;;;12.57;nan;99505.44;4976230;28;20240;-91
2023/10/20 08:19:07;;;;;;;;;;;;;;;12.55;nan;99502.22;4973936;28;19974;-87
2023/10/20 08:21:35;;;;;;;;;;;;;;;12.58;nan;99507.03;4975627;28;20009;-90
2023/10/20 08:24:04;;;;;;;;;;;;;;;12.61;nan;99522.56;4979239;28;20024;-87
2023/10/20 08:26:31;;;;;;;;;;;;;;;12.63;nan;99523.06;4978642;28;19941;-86
2023/10/20 08:29:20;;;;;;;;;;;;;;;12.63;nan;99528.44;4977114;28;19918;-87
2023/10/20 08:31:48;;;;;;;;;;;;;;;12.64;nan;99511.22;4975467;28;20394;-90
2023/10/20 08:34:20;;;;;;;;;;;;;;;12.55;nan;99512.94;4976177;28;19918;-89
2023/10/20 08:36:47;;;;;;;;;;;;;;;12.55;nan;99496.84;4980616;28;20042;-87
2023/10/20 08:39:28;;;;;;;;;;;;;;;12.58;nan;99491.69;4979531;28;19978;-88
2023/10/20 08:41:58;;;;;;;;;;;;;;;12.55;nan;99486.09;4977970;28;20364;-87
2023/10/20 08:44:26;;;;;;;;;;;;;;;12.60;nan;99499.47;4975817;28;20009;-90
2023/10/20 08:46:53;;;;;;;;;;;;;;;12.52;nan;99508.16;4974111;28;19973;-85
2023/10/20 08:49:20;;;;;;;;;;;;;;;12.52;nan;99498.22;4978815;28;19926;-87
2023/10/20 08:51:54;;;;;;;;;;;;;;;12.53;nan;99510.56;4982563;28;19925;-88
2023/10/20 08:54:26;;;;;;;;;;;;;;;12.61;nan;99531.41;4975486;28;19926;-90
2023/10/20 08:56:52;;;;;;;;;;;;;;;12.68;nan;99539.09;4976916;28;19922;-86
2023/10/20 08:59:35;;;;;;;;;;;;;;;12.73;nan;99544.41;4980318;28;19937;-87
2023/10/20 09:02:01;;;;;;;;;;;;;;;12.71;nan;99544.69;4977230;28;19969;-86
2023/10/20 09:04:40;;;;;;;;;;;;;;;12.73;nan;99536.34;4977413;28;19933;-87
2023/10/20 09:07:16;;;;;;;;;;;;;;;12.75;nan;99533.34;4977531;28;19922;-90
2023/10/20 09:09:58;;;;;;;;;;;;;;;12.71;nan;99535.81;4979113;28;19949;-86
2023/10/20 09:12:26;;;;;;;;;;;;;;;12.73;nan;99530.97;4976358;28;19957;-88
2023/10/20 09:15:11;;;;;;;;;;;;;;;12.70;nan;99539.63;4973021;28;19932;-88
2023/10/20 09:17:38;;;;;;;;;;;;;;;12.71;nan;99549.25;4976195;28;19926;-84
2023/10/20 09:20:21;;;;;;;;;;;;;;;12.69;nan;99543.38;4977579;28;20025;-87
2023/10/20 09:22:57;;;;;;;;;;;;;;;12.70;nan;99535.03;4978086;28;20097;-91
2023/10/20 09:25:34;;;;;;;;;;;;;;;12.73;nan;99539.03;4972253;28;19918;-90
2023/10/20 09:28:10;;;;;;;;;;;;;;;12.73;nan;99522.91;4974104;28;19918;-90
2023/10/20 09:30:47;;;;;;;;;;;;;;;12.72;nan;99537.44;4973957;28;19941;-86
2023/10/20 09:33:13;;;;;;;;;;;;;;;12.75;nan;99519.91;4973691;28;19922;-86
2023/10/20 09:35:41;;;;;;;;;;;;;;;12.70;nan;99523.47;4971564;28;19964;-86
2023/10/20 09:38:12;;;;;;;;;;;;;;;12.69;nan;99521.88;4973708;28;19981;-87
2023/10/20 09:41:02;;;;;;;;;;;;;;;12.76;nan;99516.97;4969823;28;20394;-89
2023/10/20 09:43:30;;;;;;;;;;;;;;;12.74;nan;99521.00;4975430;28;20520;-86
2023/10/20 09:46:07;;;;;;;;;;;;;;;12.77;nan;99523.94;4975933;28;20208;-90
2023/10/20 09:48:42;;;;;;;;;;;;;;;12.79;nan;99516.38;4974538;28;19922;-88
2023/10/20 09:51:10;;;;;;;;;;;;;;;12.84;nan;99510.13;4971901;28;19922;-88
2023/10/20 09:53:36;;;;;;;;;;;;;;;12.88;nan;99508.44;4974971;28;19926;-87
2023/10/20 09:56:16;;;;;;;;;;;;;;;12.88;nan;99506.53;4974136;28;19926;-88
2023/10/20 09:58:46;;;;;;;;;;;;;;;12.94;nan;99505.38;4973822;28;19930;-85
2023/10/20 10:01:17;;;;;;;;;;;;;;;12.92;nan;99499.47;4970345;28;19973;-87
2023/10/20 10:03:47;;;;;;;;;;;;;;;12.92;nan;99499.47;4976169;28;19926;-87
2023/10/20 10:06:13;;;;;;;;;;;;;;;12.89;nan;99497.38;4972045;28;19972;-85
2023/10/20 10:08:43;;;;;;;;;;;;;;;12.85;nan;99490.19;4973343;28;19922;-88
2023/10/20 10:11:39;;;;;;;;;;;;;;;12.80;nan;99498.34;4972357;28;19926;-87
2023/10/20 10:14:09;;;;;;;;;;;;;;;12.74;nan;99494.94;4973465;28;19922;-89
2023/10/20 10:16:53;;;;;;;;;;;;;;;12.74;nan;99486.88;4972388;28;19926;-85
2023/10/20 10:19:27;;;;;;;;;;;;;;;12.68;nan;99490.72;4977880;28;19926;-86
2023/10/20 10:22:00;;;;;;;;;;;;;;;12.66;nan;99482.16;4971577;28;20466;-87
2023/10/20 10:24:51;;;;;;;;;;;;;;;12.61;nan;99480.38;4974195;28;19926;-85
2023/10/20 10:27:19;;;;;;;;;;;;;;;12.62;nan;99465.84;4971582;28;20430;-86
2023/10/20 10:29:58;;;;;;;;;;;;;;;12.62;nan;99456.97;4975664;28;19925;-85
2023/10/20 10:32:28;;;;;;;;;;;;;;;12.63;nan;99453.19;4974373;28;20430;-87
2023/10/20 10:34:55;;;;;;;;;;;;;;;12.67;nan;99448.81;4974134;28;19929;-85
2023/10/20 10:37:41;;;;;;;;;;;;;;;12.66;nan;99450.72;4976351;28;19930;-88
2023/10/20 10:40:22;;;;;;;;;;;;;;;12.68;nan;99463.88;4977931;28;19928;-86
2023/10/20 10:42:52;;;;;;;;;;;;;;;12.69;nan;99463.56;4975838;28;20468;-86
2023/10/20 10:45:21;;;;;;;;;;;;;;;12.67;nan;99443.44;4973344;28;19984;-86
2023/10/20 10:47:47;;;;;;;;;;;;;;;12.68;nan;99440.47;4978670;28;19984;-87
2023/10/20 10:50:20;;;;;;;;;;;;;;;12.73;nan;99438.78;4974448;28;19926;-88
2023/10/20 10:52:45;;;;;;;;;;;;;;;12.81;nan;99428.19;4973919;28;19929;-88
2023/10/20 10:55:13;;;;;;;;;;;;;;;12.93;nan;99436.59;4964274;28;20161;-87
2023/10/20 10:57:43;;;;;;;;;;;;;;;12.93;nan;99433.09;4962259;28;20418;-87
2023/10/20 11:00:15;;;;;;;;;;;;;;;12.93;nan;99427.72;4973200;28;19929;-87
2023/10/20 11:02:45;;;;;;;;;;;;;;;12.84;nan;99427.59;4968027;28;19997;-85
2023/10/20 11:05:11;;;;;;;;;;;;;;;12.81;nan;99430.06;4975375;28;19922;-86
2023/10/20 11:07:42;;;;;;;;;;;;;;;12.76;nan;99422.09;4960194;28;19926;-87
2023/10/20 11:10:15;;;;;;;;;;;;;;;12.83;nan;99417.94;4973510;28;19922;-83
2023/10/20 11:12:49;;;;;;;;;;;;;;;12.82;nan;99419.03;4976498;28;19926;-85
2023/10/20 11:15:30;;;;;;;;;;;;;;;12.78;nan;99418.03;4963297;28;19929;-89
2023/10/20 11:18:05;;;;;;;;;;;;;;;12.81;nan;99425.50;4964093;28;19930;-86
2023/10/20 11:20:40;;;;;;;;;;;;;;;12.75;nan;99415.94;4963940;28;20461;-86
2023/10/20 11:23:09;;;;;;;;;;;;;;;12.78;nan;99411.84;4966786;28;19980;-86
2023/10/20 11:25:57;;;;;;;;;;;;;;;12.81;nan;99403.19;4968006;28;20303;-86
2023/10/20 11:28:23;;;;;;;;;;;;;;;12.88;nan;99399.00;4967063;28;19918;-86
2023/10/20 11:30:53;;;;;;;;;;;;;;;12.87;nan;99399.31;4963874;28;20386;-86
2023/10/20 11:33:21;;;;;;;;;;;;;;;12.83;nan;99407.19;4970010;28;19945;-86
2023/10/20 11:35:49;;;;;;;;;;;;;;;12.83;nan;99401.00;4967921;28;19926;-84
2023/10/20 11:38:19;;;;;;;;;;;;;;;12.83;nan;99396.41;4974503;28;19933;-84
2023/10/20 11:40:51;;;;;;;;;;;;;;;12.80;nan;99396.22;4973648;28;21004;-87
2023/10/20 11:43:20;;;;;;;;;;;;;;;12.80;nan;99396.22;4971940;28;19921;-85
2023/10/20 11:45:54;;;;;;;;;;;;;;;12.82;nan;99402.91;4973435;28;20486;-86
2023/10/20 11:48:21;;;;;;;;;;;;;;;12.84;nan;99405.28;4965544;28;20390;-86
2023/10/20 11:50:47;;;;;;;;;;;;;;;12.80;nan;99410.47;4968588;28;21088;-85
2023/10/20 11:53:15;;;;;;;;;;;;;;;12.79;nan;99406.19;4971689;28;19918;-84
2023/10/20 11:55:45;;;;;;;;;;;;;;;12.80;nan;99410.47;4971989;28;19929;-85
2023/10/20 11:58:22;;;;;;;;;;;;;;;12.75;nan;99413.25;4964133;28;19922;-84
2023/10/20 12:00:50;;;;;;;;;;;;;;;12.69;nan;99414.41;4967816;28;20014;-85
2023/10/20 12:03:20;;;;;;;;;;;;;;;12.68;nan;99415.50;4971435;28;19997;-84
2023/10/20 12:05:47;;;;;;;;;;;;;;;12.74;nan;99419.69;4969231;28;19926;-85
2023/10/20 12:08:13;;;;;;;;;;;;;;;12.74;nan;99414.31;4972036;28;19929;-85
2023/10/20 12:10:43;;;;;;;;;;;;;;;12.75;nan;99405.19;4968754;28;19922;-85
2023/10/20 12:13:09;;;;;;;;;;;;;;;12.79;nan;99416.94;4976817;28;20373;-85
2023/10/20 12:15:37;;;;;;;;;;;;;;;12.86;nan;99419.22;4959355;28;19933;-84
2023/10/20 12:18:03;;;;;;;;;;;;;;;12.85;nan;99413.06;4966341;28;19934;-84
2023/10/20 12:20:33;;;;;;;;;;;;;;;12.85;nan;99414.94;4969111;28;19924;-83
2023/10/20 12:23:00;;;;;;;;;;;;;;;12.80;nan;99412.34;4967451;28;19933;-84
2023/10/20 12:25:26;;;;;;;;;;;;;;;12.76;nan;99406.78;4970985;28;19918;-84
2023/10/20 12:27:56;;;;;;;;;;;;;;;12.72;nan;99405.75;4975690;28;19922;-84
2023/10/20 12:30:30;;;;;;;;;;;;;;;12.67;nan;99403.16;4969872;28;19929;-84
2023/10/20 12:32:55;;;;;;;;;;;;;;;12.59;nan;99396.56;4973237;28;19969;-84
2023/10/20 12:35:21;;;;;;;;;;;;;;;12.54;nan;99409.25;4971658;28;20077;-84
2023/10/20 12:37:48;;;;;;;;;;;;;;;12.50;nan;99402.88;4968347;28;19926;-84
2023/10/20 12:40:13;;;;;;;;;;;;;;;12.49;nan;99399.41;4967300;28;20271;-85
2023/10/20 12:42:40;;;;;;;;;;;;;;;12.59;nan;99399.25;4968998;28;19930;-85
2023/10/20 12:45:09;;;;;;;;;;;;;;;12.60;nan;99392.00;4973019;28;20384;-84
2023/10/20 12:47:34;;;;;;;;;;;;;;;12.63;nan;99386.03;4971263;28;20290;-84
2023/10/20 12:50:03;;;;;;;;;;;;;;;12.61;nan;99380.94;4970454;28;20402;-84
2023/10/20 12:52:29;;;;;;;;;;;;;;;12.60;nan;99378.56;4972371;28;20421;-85
2023/10/20 12:54:55;;;;;;;;;;;;;;;12.63;nan;99370.69;4976893;28;20165;-85
2023/10/20 12:57:24;;;;;;;;;;;;;;;12.63;nan;99375.28;4970118;28;19926;-86
2023/10/20 12:59:51;;;;;;;;;;;;;;;12.64;nan;99384.94;4974000;28;19930;-86
2023/10/20 13:02:18;;;;;;;;;;;;;;;12.69;nan;99374.09;4970845;28;19922;-84
2023/10/20 13:04:43;;;;;;;;;;;;;;;12.67;nan;99373.59;4974868;28;19922;-85
2023/10/20 13:07:08;;;;;;;;;;;;;;;12.68;nan;99377.88;4969685;28;20413;-84
2023/10/20 13:09:35;;;;;;;;;;;;;;;12.62;nan;99379.06;4969029;28;20422;-84
2023/10/20 13:12:10;;;;;;;;;;;;;;;12.67;nan;99376.28;4971128;28;19922;-84
2023/10/20 13:14:40;;;;;;;;;;;;;;;12.74;nan;99371.31;4971832;28;20197;-85
2023/10/20 13:17:05;;;;;;;;;;;;;;;12.65;nan;99381.16;4970226;28;19926;-85
2023/10/20 13:19:37;;;;;;;;;;;;;;;12.61;nan;99370.19;4974951;28;19941;-84
2023/10/20 13:22:03;;;;;;;;;;;;;;;12.61;nan;99370.19;4971831;28;19968;-85
2023/10/20 13:24:32;;;;;;;;;;;;;;;12.64;nan;99358.84;4970999;28;20314;-84
2023/10/20 13:27:00;;;;;;;;;;;;;;;12.60;nan;99360.53;4972091;28;19970;-83
2023/10/20 13:29:26;;;;;;;;;;;;;;;12.58;nan;99351.19;4968501;28;19992;-83
2023/10/20 13:31:53;;;;;;;;;;;;;;;12.54;nan;99352.84;4971264;28;20302;-85
2023/10/20 13:34:19;;;;;;;;;;;;;;;12.61;nan;99345.22;4970403;28;19957;-84
2023/10/20 13:36:46;;;;;;;;;;;;;;;12.66;nan;99337.84;4976709;28;19969;-84
2023/10/20 13:39:16;;;;;;;;;;;;;;;12.68;nan;99316.06;4971974;28;20414;-84
2023/10/20 13:41:51;;;;;;;;;;;;;;;12.68;nan;99313.38;4970147;28;20000;-84
2023/10/20 13:44:19;;;;;;;;;;;;;;;12.65;nan;99308.59;4972934;28;19922;-84
2023/10/20 13:46:55;;;;;;;;;;;;;;;12.67;nan;99306.41;4971276;28;19921;-84